sensor_id;sensor_type;location;lat;lon;timestamp;temperature;humidity
56861;DHT22;42744;51.094;3.490;2023-04-30T00:01:44;6.70;99.90
56861;DHT22;42744;51.094;3.490;2023-04-30T00:04:10;6.70;99.90
56861;DHT22;42744;51.094;3.490;2023-04-30T00:06:36;6.70;99.90
56861;DHT22;42744;51.094;3.490;2023-04-30T00:09:02;6.70;99.90
56861;DHT22;42744;51.094;3.490;2023-04-30T00:11:28;6.70;99.90
56861;DHT22;42744;51.094;3.490;2023-04-30T00:13:54;6.70;99.90
56861;DHT22;42744;51.094;3.490;2023-04-30T00:16:21;6.60;99.90
56861;DHT22;42744;51.094;3.490;2023-04-30T00:18:47;6.50;99.90
56861;DHT22;42744;51.094;3.490;2023-04-30T00:21:13;6.50;99.90
56861;DHT22;42744;51.094;3.490;2023-04-30T00:23:39;6.50;99.90
56861;DHT22;42744;51.094;3.490;2023-04-30T00:26:05;6.50;99.90
56861;DHT22;42744;51.094;3.490;2023-04-30T00:28:31;6.50;99.90
56861;DHT22;42744;51.094;3.490;2023-04-30T00:30:57;6.50;99.90
56861;DHT22;42744;51.094;3.490;2023-04-30T00:33:24;6.50;99.90
56861;DHT22;42744;51.094;3.490;2023-04-30T00:35:49;6.40;99.90
56861;DHT22;42744;51.094;3.490;2023-04-30T00:38:15;6.40;99.90
56861;DHT22;42744;51.094;3.490;2023-04-30T00:40:42;6.40;99.90
56861;DHT22;42744;51.094;3.490;2023-04-30T00:43:08;6.40;99.90
56861;DHT22;42744;51.094;3.490;2023-04-30T00:45:35;6.40;99.90
56861;DHT22;42744;51.094;3.490;2023-04-30T00:48:01;6.40;99.90
56861;DHT22;42744;51.094;3.490;2023-04-30T00:50:28;6.40;99.90
56861;DHT22;42744;51.094;3.490;2023-04-30T00:52:54;6.30;99.90
56861;DHT22;42744;51.094;3.490;2023-04-30T00:55:21;6.30;99.90
56861;DHT22;42744;51.094;3.490;2023-04-30T00:57:47;6.30;99.90
56861;DHT22;42744;51.094;3.490;2023-04-30T01:00:14;6.20;99.90
56861;DHT22;42744;51.094;3.490;2023-04-30T01:02:40;6.20;99.90
56861;DHT22;42744;51.094;3.490;2023-04-30T01:05:06;6.20;99.90
56861;DHT22;42744;51.094;3.490;2023-04-30T01:07:34;6.20;99.90
56861;DHT22;42744;51.094;3.490;2023-04-30T01:10:01;6.20;99.90
56861;DHT22;42744;51.094;3.490;2023-04-30T01:12:41;6.20;99.90
56861;DHT22;42744;51.094;3.490;2023-04-30T01:17:44;6.10;99.90
56861;DHT22;42744;51.094;3.490;2023-04-30T01:20:13;6.10;99.90
56861;DHT22;42744;51.094;3.490;2023-04-30T01:22:56;6.10;99.90
56861;DHT22;42744;51.094;3.490;2023-04-30T01:28:52;6.10;99.90
56861;DHT22;42744;51.094;3.490;2023-04-30T01:31:19;6.10;99.90
56861;DHT22;42744;51.094;3.490;2023-04-30T01:33:45;6.10;99.90
56861;DHT22;42744;51.094;3.490;2023-04-30T01:42:19;6.10;99.90
56861;DHT22;42744;51.094;3.490;2023-04-30T01:45:17;6.10;99.90
56861;DHT22;42744;51.094;3.490;2023-04-30T01:53:50;6.10;99.90
56861;DHT22;42744;51.094;3.490;2023-04-30T01:56:36;6.10;99.90
56861;DHT22;42744;51.094;3.490;2023-04-30T01:59:05;6.10;99.90
56861;DHT22;42744;51.094;3.490;2023-04-30T02:01:32;6.00;99.90
56861;DHT22;42744;51.094;3.490;2023-04-30T02:03:58;6.00;99.90
56861;DHT22;42744;51.094;3.490;2023-04-30T02:06:25;6.00;99.90
56861;DHT22;42744;51.094;3.490;2023-04-30T02:08:55;5.90;99.90
56861;DHT22;42744;51.094;3.490;2023-04-30T02:11:28;5.80;99.90
56861;DHT22;42744;51.094;3.490;2023-04-30T02:13:54;5.80;99.90
56861;DHT22;42744;51.094;3.490;2023-04-30T02:16:20;5.80;99.90
56861;DHT22;42744;51.094;3.490;2023-04-30T02:18:46;5.80;99.90
56861;DHT22;42744;51.094;3.490;2023-04-30T02:21:12;5.80;99.90
56861;DHT22;42744;51.094;3.490;2023-04-30T02:23:39;5.80;99.90
56861;DHT22;42744;51.094;3.490;2023-04-30T02:26:07;5.80;99.90
56861;DHT22;42744;51.094;3.490;2023-04-30T02:28:33;5.80;99.90
56861;DHT22;42744;51.094;3.490;2023-04-30T02:30:59;5.80;99.90
56861;DHT22;42744;51.094;3.490;2023-04-30T02:33:25;5.70;99.90
56861;DHT22;42744;51.094;3.490;2023-04-30T02:35:51;5.70;99.90
56861;DHT22;42744;51.094;3.490;2023-04-30T02:38:17;5.70;99.90
56861;DHT22;42744;51.094;3.490;2023-04-30T02:40:43;5.70;99.90
56861;DHT22;42744;51.094;3.490;2023-04-30T02:43:09;5.70;99.90
56861;DHT22;42744;51.094;3.490;2023-04-30T02:45:35;5.70;99.90
56861;DHT22;42744;51.094;3.490;2023-04-30T02:48:01;5.70;99.90
56861;DHT22;42744;51.094;3.490;2023-04-30T02:50:27;5.70;99.90
56861;DHT22;42744;51.094;3.490;2023-04-30T02:52:53;5.60;99.90
56861;DHT22;42744;51.094;3.490;2023-04-30T02:55:21;5.50;99.90
56861;DHT22;42744;51.094;3.490;2023-04-30T02:57:46;5.50;99.90
56861;DHT22;42744;51.094;3.490;2023-04-30T03:00:12;5.50;99.90
56861;DHT22;42744;51.094;3.490;2023-04-30T03:02:39;5.50;99.90
56861;DHT22;42744;51.094;3.490;2023-04-30T03:05:06;5.50;99.90
56861;DHT22;42744;51.094;3.490;2023-04-30T03:07:31;5.50;99.90
56861;DHT22;42744;51.094;3.490;2023-04-30T03:09:58;5.50;99.90
56861;DHT22;42744;51.094;3.490;2023-04-30T03:12:24;5.50;99.90
56861;DHT22;42744;51.094;3.490;2023-04-30T03:14:50;5.50;99.90
56861;DHT22;42744;51.094;3.490;2023-04-30T03:17:17;5.50;99.90
56861;DHT22;42744;51.094;3.490;2023-04-30T03:19:43;5.40;99.90
56861;DHT22;42744;51.094;3.490;2023-04-30T03:22:10;5.40;99.90
56861;DHT22;42744;51.094;3.490;2023-04-30T03:24:36;5.40;99.90
56861;DHT22;42744;51.094;3.490;2023-04-30T03:27:02;5.30;99.90
56861;DHT22;42744;51.094;3.490;2023-04-30T03:29:28;5.30;99.90
56861;DHT22;42744;51.094;3.490;2023-04-30T03:31:54;5.30;99.90
56861;DHT22;42744;51.094;3.490;2023-04-30T03:34:20;5.40;99.90
56861;DHT22;42744;51.094;3.490;2023-04-30T03:36:46;5.40;99.90
56861;DHT22;42744;51.094;3.490;2023-04-30T03:39:14;5.30;99.90
56861;DHT22;42744;51.094;3.490;2023-04-30T03:41:40;5.40;99.90
56861;DHT22;42744;51.094;3.490;2023-04-30T03:44:06;5.30;99.90
56861;DHT22;42744;51.094;3.490;2023-04-30T03:46:42;5.30;99.90
56861;DHT22;42744;51.094;3.490;2023-04-30T03:49:08;5.30;99.90
56861;DHT22;42744;51.094;3.490;2023-04-30T03:51:36;5.30;99.90
56861;DHT22;42744;51.094;3.490;2023-04-30T03:54:05;5.40;99.90
56861;DHT22;42744;51.094;3.490;2023-04-30T03:56:32;5.40;99.90
56861;DHT22;42744;51.094;3.490;2023-04-30T03:58:58;5.40;99.90
56861;DHT22;42744;51.094;3.490;2023-04-30T04:01:28;5.40;99.90
56861;DHT22;42744;51.094;3.490;2023-04-30T04:03:58;5.40;99.90
56861;DHT22;42744;51.094;3.490;2023-04-30T04:06:24;5.40;99.90
56861;DHT22;42744;51.094;3.490;2023-04-30T04:08:50;5.40;99.90
56861;DHT22;42744;51.094;3.490;2023-04-30T04:11:16;5.40;99.90
56861;DHT22;42744;51.094;3.490;2023-04-30T04:13:42;5.40;99.90
56861;DHT22;42744;51.094;3.490;2023-04-30T04:16:08;5.40;99.90
56861;DHT22;42744;51.094;3.490;2023-04-30T04:18:34;5.30;99.90
56861;DHT22;42744;51.094;3.490;2023-04-30T04:21:01;5.30;99.90
56861;DHT22;42744;51.094;3.490;2023-04-30T04:23:28;5.30;99.90
56861;DHT22;42744;51.094;3.490;2023-04-30T04:25:54;5.30;99.90
56861;DHT22;42744;51.094;3.490;2023-04-30T04:28:20;5.30;99.90
56861;DHT22;42744;51.094;3.490;2023-04-30T04:30:46;5.30;99.90
56861;DHT22;42744;51.094;3.490;2023-04-30T04:33:12;5.30;99.90
56861;DHT22;42744;51.094;3.490;2023-04-30T04:35:39;5.30;99.90
56861;DHT22;42744;51.094;3.490;2023-04-30T04:38:05;5.30;99.90
56861;DHT22;42744;51.094;3.490;2023-04-30T04:40:31;5.30;99.90
56861;DHT22;42744;51.094;3.490;2023-04-30T04:42:57;5.40;99.90
56861;DHT22;42744;51.094;3.490;2023-04-30T04:45:23;5.30;99.90
56861;DHT22;42744;51.094;3.490;2023-04-30T04:47:49;5.30;99.90
56861;DHT22;42744;51.094;3.490;2023-04-30T04:50:16;5.30;99.90
56861;DHT22;42744;51.094;3.490;2023-04-30T04:52:43;5.40;99.90
56861;DHT22;42744;51.094;3.490;2023-04-30T04:55:09;5.30;99.90
56861;DHT22;42744;51.094;3.490;2023-04-30T04:57:36;5.40;99.90
56861;DHT22;42744;51.094;3.490;2023-04-30T05:00:02;5.50;99.90
56861;DHT22;42744;51.094;3.490;2023-04-30T05:02:31;5.50;99.90
56861;DHT22;42744;51.094;3.490;2023-04-30T05:04:57;5.50;99.90
56861;DHT22;42744;51.094;3.490;2023-04-30T05:07:23;5.60;99.90
56861;DHT22;42744;51.094;3.490;2023-04-30T05:09:49;5.60;99.90
56861;DHT22;42744;51.094;3.490;2023-04-30T05:12:15;5.70;99.90
56861;DHT22;42744;51.094;3.490;2023-04-30T05:14:41;5.70;99.90
56861;DHT22;42744;51.094;3.490;2023-04-30T05:17:08;5.70;99.90
56861;DHT22;42744;51.094;3.490;2023-04-30T05:19:34;5.70;99.90
56861;DHT22;42744;51.094;3.490;2023-04-30T05:21:59;5.80;99.90
56861;DHT22;42744;51.094;3.490;2023-04-30T05:24:27;5.80;99.90
56861;DHT22;42744;51.094;3.490;2023-04-30T05:26:53;5.80;99.90
56861;DHT22;42744;51.094;3.490;2023-04-30T05:29:19;5.90;99.90
56861;DHT22;42744;51.094;3.490;2023-04-30T05:31:45;5.90;99.90
56861;DHT22;42744;51.094;3.490;2023-04-30T05:34:11;6.00;99.90
56861;DHT22;42744;51.094;3.490;2023-04-30T05:36:37;6.00;99.90
56861;DHT22;42744;51.094;3.490;2023-04-30T05:39:03;6.10;99.90
56861;DHT22;42744;51.094;3.490;2023-04-30T05:41:29;6.20;99.90
56861;DHT22;42744;51.094;3.490;2023-04-30T05:43:55;6.30;99.90
56861;DHT22;42744;51.094;3.490;2023-04-30T05:46:21;6.30;99.90
56861;DHT22;42744;51.094;3.490;2023-04-30T05:48:47;6.40;99.90
56861;DHT22;42744;51.094;3.490;2023-04-30T05:51:13;6.50;99.90
56861;DHT22;42744;51.094;3.490;2023-04-30T05:53:39;6.60;99.90
56861;DHT22;42744;51.094;3.490;2023-04-30T05:56:05;6.80;99.90
56861;DHT22;42744;51.094;3.490;2023-04-30T05:58:31;7.00;99.90
56861;DHT22;42744;51.094;3.490;2023-04-30T06:00:57;7.10;99.90
56861;DHT22;42744;51.094;3.490;2023-04-30T06:03:24;7.30;99.90
56861;DHT22;42744;51.094;3.490;2023-04-30T06:05:50;7.40;99.90
56861;DHT22;42744;51.094;3.490;2023-04-30T06:08:16;7.60;99.90
56861;DHT22;42744;51.094;3.490;2023-04-30T06:10:42;7.70;99.90
56861;DHT22;42744;51.094;3.490;2023-04-30T06:13:08;7.80;99.90
56861;DHT22;42744;51.094;3.490;2023-04-30T06:15:34;8.00;99.90
56861;DHT22;42744;51.094;3.490;2023-04-30T06:18:00;8.10;99.90
56861;DHT22;42744;51.094;3.490;2023-04-30T06:20:26;8.20;99.90
56861;DHT22;42744;51.094;3.490;2023-04-30T06:22:52;8.30;99.90
56861;DHT22;42744;51.094;3.490;2023-04-30T06:25:19;8.30;99.90
56861;DHT22;42744;51.094;3.490;2023-04-30T06:27:47;8.40;99.90
56861;DHT22;42744;51.094;3.490;2023-04-30T06:30:13;8.50;99.90
56861;DHT22;42744;51.094;3.490;2023-04-30T06:32:39;8.60;99.90
56861;DHT22;42744;51.094;3.490;2023-04-30T06:35:06;8.70;99.90
56861;DHT22;42744;51.094;3.490;2023-04-30T06:37:32;8.80;99.90
56861;DHT22;42744;51.094;3.490;2023-04-30T06:40:03;8.90;99.90
56861;DHT22;42744;51.094;3.490;2023-04-30T06:42:30;9.00;99.90
56861;DHT22;42744;51.094;3.490;2023-04-30T06:45:02;9.10;99.90
56861;DHT22;42744;51.094;3.490;2023-04-30T06:47:32;9.10;99.90
56861;DHT22;42744;51.094;3.490;2023-04-30T06:50:03;9.20;99.90
56861;DHT22;42744;51.094;3.490;2023-04-30T06:52:30;9.40;99.90
56861;DHT22;42744;51.094;3.490;2023-04-30T06:54:56;9.50;99.90
56861;DHT22;42744;51.094;3.490;2023-04-30T06:57:22;9.60;99.90
56861;DHT22;42744;51.094;3.490;2023-04-30T06:59:48;9.70;99.90
56861;DHT22;42744;51.094;3.490;2023-04-30T07:02:14;9.70;99.90
56861;DHT22;42744;51.094;3.490;2023-04-30T07:04:40;9.90;99.90
56861;DHT22;42744;51.094;3.490;2023-04-30T07:07:06;10.00;99.90
56861;DHT22;42744;51.094;3.490;2023-04-30T07:09:32;10.00;99.90
56861;DHT22;42744;51.094;3.490;2023-04-30T07:11:58;10.10;99.90
56861;DHT22;42744;51.094;3.490;2023-04-30T07:14:24;10.20;99.90
56861;DHT22;42744;51.094;3.490;2023-04-30T07:16:50;10.40;99.90
56861;DHT22;42744;51.094;3.490;2023-04-30T07:19:16;10.50;99.90
56861;DHT22;42744;51.094;3.490;2023-04-30T07:21:43;10.60;99.90
56861;DHT22;42744;51.094;3.490;2023-04-30T07:24:08;10.70;99.90
56861;DHT22;42744;51.094;3.490;2023-04-30T07:26:35;10.80;99.90
56861;DHT22;42744;51.094;3.490;2023-04-30T07:29:01;11.00;99.90
56861;DHT22;42744;51.094;3.490;2023-04-30T07:31:28;11.10;99.90
56861;DHT22;42744;51.094;3.490;2023-04-30T07:33:54;11.30;99.90
56861;DHT22;42744;51.094;3.490;2023-04-30T07:36:21;11.30;99.90
56861;DHT22;42744;51.094;3.490;2023-04-30T07:38:47;11.30;99.90
56861;DHT22;42744;51.094;3.490;2023-04-30T07:41:13;11.40;99.90
56861;DHT22;42744;51.094;3.490;2023-04-30T07:43:39;11.50;99.90
56861;DHT22;42744;51.094;3.490;2023-04-30T07:46:05;11.60;99.90
56861;DHT22;42744;51.094;3.490;2023-04-30T07:48:31;11.60;99.90
56861;DHT22;42744;51.094;3.490;2023-04-30T07:50:58;11.60;99.90
56861;DHT22;42744;51.094;3.490;2023-04-30T07:53:23;11.70;99.90
56861;DHT22;42744;51.094;3.490;2023-04-30T07:55:49;11.70;99.90
56861;DHT22;42744;51.094;3.490;2023-04-30T07:58:16;11.80;99.90
56861;DHT22;42744;51.094;3.490;2023-04-30T08:00:41;11.90;99.90
56861;DHT22;42744;51.094;3.490;2023-04-30T08:03:07;11.90;99.90
56861;DHT22;42744;51.094;3.490;2023-04-30T08:05:33;11.90;99.90
56861;DHT22;42744;51.094;3.490;2023-04-30T08:07:59;12.10;99.90
56861;DHT22;42744;51.094;3.490;2023-04-30T08:10:26;12.20;99.90
56861;DHT22;42744;51.094;3.490;2023-04-30T08:12:52;12.30;99.90
56861;DHT22;42744;51.094;3.490;2023-04-30T08:15:18;12.40;99.90
56861;DHT22;42744;51.094;3.490;2023-04-30T08:17:51;12.40;99.90
56861;DHT22;42744;51.094;3.490;2023-04-30T08:20:17;12.50;99.90
56861;DHT22;42744;51.094;3.490;2023-04-30T08:22:44;12.60;99.90
56861;DHT22;42744;51.094;3.490;2023-04-30T08:25:10;12.70;99.90
56861;DHT22;42744;51.094;3.490;2023-04-30T08:27:37;12.80;99.90
56861;DHT22;42744;51.094;3.490;2023-04-30T08:30:05;12.90;99.90
56861;DHT22;42744;51.094;3.490;2023-04-30T08:32:34;13.00;99.90
56861;DHT22;42744;51.094;3.490;2023-04-30T08:35:04;13.10;99.90
56861;DHT22;42744;51.094;3.490;2023-04-30T08:37:31;13.20;99.90
56861;DHT22;42744;51.094;3.490;2023-04-30T08:39:57;13.30;99.90
56861;DHT22;42744;51.094;3.490;2023-04-30T08:42:30;13.40;99.90
56861;DHT22;42744;51.094;3.490;2023-04-30T08:44:59;13.50;99.90
56861;DHT22;42744;51.094;3.490;2023-04-30T08:47:26;13.60;99.90
56861;DHT22;42744;51.094;3.490;2023-04-30T08:49:52;13.70;99.90
56861;DHT22;42744;51.094;3.490;2023-04-30T08:52:19;13.80;99.90
56861;DHT22;42744;51.094;3.490;2023-04-30T08:54:46;13.90;99.90
56861;DHT22;42744;51.094;3.490;2023-04-30T08:57:13;14.00;99.90
56861;DHT22;42744;51.094;3.490;2023-04-30T08:59:39;14.10;99.90
56861;DHT22;42744;51.094;3.490;2023-04-30T09:02:06;14.20;99.90
56861;DHT22;42744;51.094;3.490;2023-04-30T09:04:34;14.30;99.90
56861;DHT22;42744;51.094;3.490;2023-04-30T09:07:00;14.50;99.90
56861;DHT22;42744;51.094;3.490;2023-04-30T09:09:29;14.70;99.90
56861;DHT22;42744;51.094;3.490;2023-04-30T09:12:16;14.80;99.90
56861;DHT22;42744;51.094;3.490;2023-04-30T09:15:01;14.90;99.90
56861;DHT22;42744;51.094;3.490;2023-04-30T09:17:28;15.00;99.90
56861;DHT22;42744;51.094;3.490;2023-04-30T09:20:05;15.10;99.90
56861;DHT22;42744;51.094;3.490;2023-04-30T09:22:31;15.20;99.90
56861;DHT22;42744;51.094;3.490;2023-04-30T09:24:57;15.30;99.90
56861;DHT22;42744;51.094;3.490;2023-04-30T09:27:23;15.50;99.90
56861;DHT22;42744;51.094;3.490;2023-04-30T09:29:49;15.70;99.90
56861;DHT22;42744;51.094;3.490;2023-04-30T09:32:16;15.90;99.90
56861;DHT22;42744;51.094;3.490;2023-04-30T09:34:42;16.10;99.90
56861;DHT22;42744;51.094;3.490;2023-04-30T09:37:09;16.20;99.90
56861;DHT22;42744;51.094;3.490;2023-04-30T09:39:49;16.30;99.90
56861;DHT22;42744;51.094;3.490;2023-04-30T09:42:16;16.30;99.90
56861;DHT22;42744;51.094;3.490;2023-04-30T09:44:42;16.60;99.90
56861;DHT22;42744;51.094;3.490;2023-04-30T09:47:16;16.80;99.90
56861;DHT22;42744;51.094;3.490;2023-04-30T09:49:46;16.80;99.90
56861;DHT22;42744;51.094;3.490;2023-04-30T09:52:14;16.90;99.90
56861;DHT22;42744;51.094;3.490;2023-04-30T09:54:43;17.00;99.90
56861;DHT22;42744;51.094;3.490;2023-04-30T09:57:11;17.20;99.90
56861;DHT22;42744;51.094;3.490;2023-04-30T09:59:44;17.50;99.90
56861;DHT22;42744;51.094;3.490;2023-04-30T10:02:14;17.80;99.90
56861;DHT22;42744;51.094;3.490;2023-04-30T10:04:42;17.90;99.90
56861;DHT22;42744;51.094;3.490;2023-04-30T10:07:15;17.80;99.90
56861;DHT22;42744;51.094;3.490;2023-04-30T10:10:02;18.00;99.90
56861;DHT22;42744;51.094;3.490;2023-04-30T10:12:37;18.20;99.90
56861;DHT22;42744;51.094;3.490;2023-04-30T10:15:14;18.10;96.30
56861;DHT22;42744;51.094;3.490;2023-04-30T10:17:44;17.80;99.90
56861;DHT22;42744;51.094;3.490;2023-04-30T10:20:12;18.00;99.90
56861;DHT22;42744;51.094;3.490;2023-04-30T10:22:39;18.40;99.90
56861;DHT22;42744;51.094;3.490;2023-04-30T10:25:06;18.60;99.90
56861;DHT22;42744;51.094;3.490;2023-04-30T10:27:36;18.90;98.20
56861;DHT22;42744;51.094;3.490;2023-04-30T10:30:02;18.70;97.90
56861;DHT22;42744;51.094;3.490;2023-04-30T10:32:47;18.70;94.90
56861;DHT22;42744;51.094;3.490;2023-04-30T10:35:19;18.50;94.40
56861;DHT22;42744;51.094;3.490;2023-04-30T10:37:58;18.70;99.90
56861;DHT22;42744;51.094;3.490;2023-04-30T10:40:28;19.20;97.40
56861;DHT22;42744;51.094;3.490;2023-04-30T10:42:54;19.80;96.70
56861;DHT22;42744;51.094;3.490;2023-04-30T10:45:37;20.20;93.80
56861;DHT22;42744;51.094;3.490;2023-04-30T10:48:05;20.00;94.00
56861;DHT22;42744;51.094;3.490;2023-04-30T10:50:32;20.10;93.80
56861;DHT22;42744;51.094;3.490;2023-04-30T10:53:04;20.00;92.30
56861;DHT22;42744;51.094;3.490;2023-04-30T10:55:31;20.20;97.30
56861;DHT22;42744;51.094;3.490;2023-04-30T10:57:57;20.80;91.40
56861;DHT22;42744;51.094;3.490;2023-04-30T11:00:28;20.70;89.20
56861;DHT22;42744;51.094;3.490;2023-04-30T11:03:02;20.60;90.40
56861;DHT22;42744;51.094;3.490;2023-04-30T11:05:38;20.40;92.30
56861;DHT22;42744;51.094;3.490;2023-04-30T11:08:05;20.30;90.10
56861;DHT22;42744;51.094;3.490;2023-04-30T11:10:35;19.90;90.10
56861;DHT22;42744;51.094;3.490;2023-04-30T11:13:06;19.90;89.40
56861;DHT22;42744;51.094;3.490;2023-04-30T11:15:44;20.20;92.50
56861;DHT22;42744;51.094;3.490;2023-04-30T11:18:12;20.90;89.20
56861;DHT22;42744;51.094;3.490;2023-04-30T11:20:49;21.40;92.50
56861;DHT22;42744;51.094;3.490;2023-04-30T11:23:22;21.60;84.10
56861;DHT22;42744;51.094;3.490;2023-04-30T11:25:51;20.70;85.30
56861;DHT22;42744;51.094;3.490;2023-04-30T11:28:21;20.40;83.30
56861;DHT22;42744;51.094;3.490;2023-04-30T11:30:50;20.30;83.80
56861;DHT22;42744;51.094;3.490;2023-04-30T11:33:17;20.40;87.90
56861;DHT22;42744;51.094;3.490;2023-04-30T11:35:43;20.30;83.70
56861;DHT22;42744;51.094;3.490;2023-04-30T11:38:11;20.30;84.20
56861;DHT22;42744;51.094;3.490;2023-04-30T11:40:39;20.70;87.50
56861;DHT22;42744;51.094;3.490;2023-04-30T11:43:05;21.20;90.10
56861;DHT22;42744;51.094;3.490;2023-04-30T11:45:32;21.50;84.10
56861;DHT22;42744;51.094;3.490;2023-04-30T11:47:58;21.00;83.00
56861;DHT22;42744;51.094;3.490;2023-04-30T11:50:26;20.90;85.50
56861;DHT22;42744;51.094;3.490;2023-04-30T11:52:56;21.10;88.50
56861;DHT22;42744;51.094;3.490;2023-04-30T11:55:23;21.30;81.80
56861;DHT22;42744;51.094;3.490;2023-04-30T11:57:52;21.70;82.50
56861;DHT22;42744;51.094;3.490;2023-04-30T12:00:30;21.50;78.70
56861;DHT22;42744;51.094;3.490;2023-04-30T12:02:58;21.00;87.10
56861;DHT22;42744;51.094;3.490;2023-04-30T12:05:26;21.50;85.10
56861;DHT22;42744;51.094;3.490;2023-04-30T12:07:56;21.90;84.60
56861;DHT22;42744;51.094;3.490;2023-04-30T12:10:23;22.20;79.70
56861;DHT22;42744;51.094;3.490;2023-04-30T12:12:50;22.00;77.60
56861;DHT22;42744;51.094;3.490;2023-04-30T12:15:22;21.60;78.60
56861;DHT22;42744;51.094;3.490;2023-04-30T12:17:52;20.90;78.80
56861;DHT22;42744;51.094;3.490;2023-04-30T12:20:19;20.80;85.50
56861;DHT22;42744;51.094;3.490;2023-04-30T12:22:46;21.20;82.30
56861;DHT22;42744;51.094;3.490;2023-04-30T12:25:14;20.70;79.90
56861;DHT22;42744;51.094;3.490;2023-04-30T12:27:43;20.30;78.40
56861;DHT22;42744;51.094;3.490;2023-04-30T12:30:10;20.10;79.90
56861;DHT22;42744;51.094;3.490;2023-04-30T12:32:47;19.80;83.40
56861;DHT22;42744;51.094;3.490;2023-04-30T12:35:15;19.70;83.70
56861;DHT22;42744;51.094;3.490;2023-04-30T12:37:43;20.00;82.60
56861;DHT22;42744;51.094;3.490;2023-04-30T12:40:13;20.70;88.50
56861;DHT22;42744;51.094;3.490;2023-04-30T12:42:41;21.60;83.40
56861;DHT22;42744;51.094;3.490;2023-04-30T12:45:09;22.30;78.40
56861;DHT22;42744;51.094;3.490;2023-04-30T12:47:40;22.50;76.30
56861;DHT22;42744;51.094;3.490;2023-04-30T12:50:10;22.10;78.00
56861;DHT22;42744;51.094;3.490;2023-04-30T12:52:40;21.70;79.10
56861;DHT22;42744;51.094;3.490;2023-04-30T12:55:16;21.30;78.90
56861;DHT22;42744;51.094;3.490;2023-04-30T13:03:11;20.40;79.90
56861;DHT22;42744;51.094;3.490;2023-04-30T13:05:38;19.70;83.50
56861;DHT22;42744;51.094;3.490;2023-04-30T13:08:04;19.60;81.70
56861;DHT22;42744;51.094;3.490;2023-04-30T13:10:32;19.70;81.60
56861;DHT22;42744;51.094;3.490;2023-04-30T13:12:58;19.90;82.00
56861;DHT22;42744;51.094;3.490;2023-04-30T13:15:25;20.50;82.30
56861;DHT22;42744;51.094;3.490;2023-04-30T13:17:52;20.90;80.70
56861;DHT22;42744;51.094;3.490;2023-04-30T13:20:18;21.30;83.20
56861;DHT22;42744;51.094;3.490;2023-04-30T13:22:44;21.60;78.50
56861;DHT22;42744;51.094;3.490;2023-04-30T13:25:11;21.30;77.60
56861;DHT22;42744;51.094;3.490;2023-04-30T13:27:37;20.70;82.80
56861;DHT22;42744;51.094;3.490;2023-04-30T13:30:03;20.80;80.00
56861;DHT22;42744;51.094;3.490;2023-04-30T13:32:29;20.80;81.50
56861;DHT22;42744;51.094;3.490;2023-04-30T13:34:55;20.80;77.00
56861;DHT22;42744;51.094;3.490;2023-04-30T13:37:23;20.80;78.50
56861;DHT22;42744;51.094;3.490;2023-04-30T13:39:49;20.70;77.70
56861;DHT22;42744;51.094;3.490;2023-04-30T13:42:15;20.60;82.40
56861;DHT22;42744;51.094;3.490;2023-04-30T13:44:41;21.00;79.40
56861;DHT22;42744;51.094;3.490;2023-04-30T13:47:07;20.70;77.80
56861;DHT22;42744;51.094;3.490;2023-04-30T13:49:35;20.70;77.70
56861;DHT22;42744;51.094;3.490;2023-04-30T13:52:02;20.60;75.60
56861;DHT22;42744;51.094;3.490;2023-04-30T13:54:28;20.70;82.90
56861;DHT22;42744;51.094;3.490;2023-04-30T13:56:54;21.30;76.80
56861;DHT22;42744;51.094;3.490;2023-04-30T13:59:20;21.20;82.20
56861;DHT22;42744;51.094;3.490;2023-04-30T14:01:46;20.70;83.20
56861;DHT22;42744;51.094;3.490;2023-04-30T14:04:13;20.40;85.30
56861;DHT22;42744;51.094;3.490;2023-04-30T14:06:39;20.00;84.00
56861;DHT22;42744;51.094;3.490;2023-04-30T14:09:05;19.60;83.30
56861;DHT22;42744;51.094;3.490;2023-04-30T14:11:31;19.60;87.00
56861;DHT22;42744;51.094;3.490;2023-04-30T14:13:58;19.70;87.40
56861;DHT22;42744;51.094;3.490;2023-04-30T14:16:25;19.90;86.30
56861;DHT22;42744;51.094;3.490;2023-04-30T14:18:51;19.90;89.50
56861;DHT22;42744;51.094;3.490;2023-04-30T14:21:17;19.80;88.30
56861;DHT22;42744;51.094;3.490;2023-04-30T14:23:43;19.70;88.30
56861;DHT22;42744;51.094;3.490;2023-04-30T14:26:11;19.40;88.70
56861;DHT22;42744;51.094;3.490;2023-04-30T14:28:37;19.20;90.50
56861;DHT22;42744;51.094;3.490;2023-04-30T14:31:03;19.10;90.40
56861;DHT22;42744;51.094;3.490;2023-04-30T14:33:30;19.10;91.00
56861;DHT22;42744;51.094;3.490;2023-04-30T14:35:57;19.00;91.80
56861;DHT22;42744;51.094;3.490;2023-04-30T14:38:27;18.90;92.70
56861;DHT22;42744;51.094;3.490;2023-04-30T14:40:53;18.70;93.40
56861;DHT22;42744;51.094;3.490;2023-04-30T14:43:19;18.60;91.80
56861;DHT22;42744;51.094;3.490;2023-04-30T14:45:45;18.50;92.70
56861;DHT22;42744;51.094;3.490;2023-04-30T14:48:11;18.50;94.00
56861;DHT22;42744;51.094;3.490;2023-04-30T14:50:37;18.50;95.20
56861;DHT22;42744;51.094;3.490;2023-04-30T14:53:04;18.50;93.40
56861;DHT22;42744;51.094;3.490;2023-04-30T14:55:31;18.60;93.90
56861;DHT22;42744;51.094;3.490;2023-04-30T14:57:58;18.70;94.80
56861;DHT22;42744;51.094;3.490;2023-04-30T15:00:24;18.80;94.40
56861;DHT22;42744;51.094;3.490;2023-04-30T15:02:50;18.70;94.70
56861;DHT22;42744;51.094;3.490;2023-04-30T15:05:16;18.80;93.20
56861;DHT22;42744;51.094;3.490;2023-04-30T15:07:42;18.90;93.20
56861;DHT22;42744;51.094;3.490;2023-04-30T15:10:08;19.00;95.50
56861;DHT22;42744;51.094;3.490;2023-04-30T15:12:34;19.00;95.00
56861;DHT22;42744;51.094;3.490;2023-04-30T15:15:01;19.00;93.10
56861;DHT22;42744;51.094;3.490;2023-04-30T15:17:30;19.00;94.40
56861;DHT22;42744;51.094;3.490;2023-04-30T15:20:04;18.80;93.60
56861;DHT22;42744;51.094;3.490;2023-04-30T15:22:32;18.70;93.30
56861;DHT22;42744;51.094;3.490;2023-04-30T15:25:00;18.70;93.80
56861;DHT22;42744;51.094;3.490;2023-04-30T15:27:27;18.50;92.80
56861;DHT22;42744;51.094;3.490;2023-04-30T15:29:53;18.50;93.00
56861;DHT22;42744;51.094;3.490;2023-04-30T15:32:19;18.50;92.60
56861;DHT22;42744;51.094;3.490;2023-04-30T15:34:45;18.60;94.70
56861;DHT22;42744;51.094;3.490;2023-04-30T15:37:11;18.60;94.00
56861;DHT22;42744;51.094;3.490;2023-04-30T15:39:37;18.40;94.30
56861;DHT22;42744;51.094;3.490;2023-04-30T15:42:04;18.30;93.60
56861;DHT22;42744;51.094;3.490;2023-04-30T15:44:30;18.20;94.50
56861;DHT22;42744;51.094;3.490;2023-04-30T15:46:56;18.20;94.70
56861;DHT22;42744;51.094;3.490;2023-04-30T15:49:22;18.30;93.60
56861;DHT22;42744;51.094;3.490;2023-04-30T15:51:52;18.40;93.50
56861;DHT22;42744;51.094;3.490;2023-04-30T15:54:17;18.40;94.10
56861;DHT22;42744;51.094;3.490;2023-04-30T15:56:43;18.50;94.20
56861;DHT22;42744;51.094;3.490;2023-04-30T15:59:10;18.50;95.70
56861;DHT22;42744;51.094;3.490;2023-04-30T16:01:36;18.50;95.40
56861;DHT22;42744;51.094;3.490;2023-04-30T16:04:02;18.50;94.60